createdAt,value
2018-08-17T00:00:49.854Z,27.17
2018-08-17T00:03:18.056Z,27.97
2018-08-17T00:05:46.271Z,27.37
2018-08-17T00:08:14.638Z,28.73
2018-08-17T00:10:42.816Z,25.97
2018-08-17T00:13:10.995Z,26.60
2018-08-17T00:15:39.182Z,25.80
2018-08-17T00:18:07.455Z,25.77
2018-08-17T00:20:35.647Z,25.17
2018-08-17T00:23:03.822Z,26.27
2018-08-17T00:25:32.023Z,25.50
2018-08-17T00:28:00.227Z,27.17
2018-08-17T00:30:28.397Z,27.93
2018-08-17T00:32:56.571Z,25.10
2018-08-17T00:35:24.758Z,27.50
2018-08-17T00:37:52.998Z,24.70
2018-08-17T00:40:21.174Z,24.63
2018-08-17T00:42:49.355Z,26.70
2018-08-17T00:45:17.550Z,25.50
2018-08-17T00:47:45.734Z,24.80
2018-08-17T00:50:13.926Z,25.70
2018-08-17T00:52:42.118Z,25.60
2018-08-17T00:55:10.319Z,25.80
2018-08-17T00:57:38.522Z,27.00
2018-08-17T01:00:06.845Z,26.27
2018-08-17T01:02:35.017Z,26.37
2018-08-17T01:05:03.233Z,24.00
2018-08-17T01:07:31.407Z,28.17
2018-08-17T01:09:59.606Z,26.13
2018-08-17T01:12:27.787Z,27.07
2018-08-17T01:14:55.971Z,25.50
2018-08-17T01:17:24.155Z,26.77
2018-08-17T01:19:52.375Z,26.93
2018-08-17T01:22:20.552Z,25.93
2018-08-17T01:24:48.755Z,26.10
2018-08-17T01:27:16.943Z,25.97
2018-08-17T01:29:45.121Z,25.60
2018-08-17T01:32:13.350Z,29.20
2018-08-17T01:34:41.511Z,27.40
2018-08-17T01:37:09.675Z,25.73
2018-08-17T01:39:37.858Z,26.07
2018-08-17T01:42:06.074Z,26.57
2018-08-17T01:44:34.242Z,26.60
2018-08-17T01:47:02.420Z,26.07
2018-08-17T01:49:30.606Z,25.60
2018-08-17T01:51:58.779Z,25.20
2018-08-17T01:54:26.952Z,25.17
2018-08-17T01:56:55.560Z,26.20
2018-08-17T01:59:23.730Z,26.80
2018-08-17T02:01:51.906Z,26.17
2018-08-17T02:04:20.090Z,26.20
2018-08-17T02:06:48.266Z,25.90
2018-08-17T02:09:16.458Z,24.57
2018-08-17T02:11:44.647Z,24.13
2018-08-17T02:14:12.814Z,25.93
2018-08-17T02:16:41.311Z,24.87
2018-08-17T02:19:09.742Z,25.57
2018-08-17T02:21:37.940Z,25.23
2018-08-17T02:24:06.126Z,24.33
2018-08-17T02:26:34.300Z,26.30
2018-08-17T02:29:02.484Z,24.60
2018-08-17T02:31:30.674Z,27.47
2018-08-17T02:33:58.894Z,27.40
2018-08-17T02:36:27.098Z,26.90
2018-08-17T02:38:55.273Z,27.50
2018-08-17T02:41:23.462Z,26.67
2018-08-17T02:43:51.631Z,27.83
2018-08-17T02:46:19.818Z,28.07
2018-08-17T02:48:47.982Z,26.10
2018-08-17T02:51:16.185Z,28.80
2018-08-17T02:53:44.387Z,31.40
2018-08-17T02:56:12.555Z,32.50
2018-08-17T02:58:40.725Z,33.03
2018-08-17T03:01:08.887Z,32.40
2018-08-17T03:03:37.062Z,33.93
2018-08-17T03:06:05.330Z,35.53
2018-08-17T03:08:33.506Z,33.83
2018-08-17T03:11:01.668Z,33.23
2018-08-17T03:13:29.854Z,35.60
2018-08-17T03:15:58.014Z,37.63
2018-08-17T03:18:26.228Z,33.87
2018-08-17T03:20:54.428Z,34.97
2018-08-17T03:23:22.627Z,35.87
2018-08-17T03:25:50.843Z,37.83
2018-08-17T03:28:19.022Z,38.30
2018-08-17T03:30:47.200Z,38.17
2018-08-17T03:33:15.360Z,38.63
2018-08-17T03:35:43.578Z,38.17
2018-08-17T03:38:11.821Z,38.30
2018-08-17T03:40:39.998Z,37.40
2018-08-17T03:43:08.329Z,35.83
2018-08-17T03:45:36.502Z,36.47
2018-08-17T03:48:04.718Z,38.63
2018-08-17T03:50:32.925Z,38.03
2018-08-17T03:53:01.110Z,38.37
2018-08-17T03:55:29.299Z,40.43
2018-08-17T03:57:57.490Z,36.63
2018-08-17T04:00:25.670Z,38.73
2018-08-17T04:02:53.862Z,39.67
2018-08-17T04:05:22.082Z,37.60
2018-08-17T04:07:50.718Z,35.87
2018-08-17T04:10:18.911Z,34.53
2018-08-17T04:12:47.086Z,35.57
2018-08-17T04:15:15.270Z,32.30
2018-08-17T04:17:43.438Z,33.57
2018-08-17T04:20:11.650Z,32.47
2018-08-17T04:22:39.810Z,30.60
2018-08-17T04:25:08.036Z,29.97
2018-08-17T04:27:36.214Z,27.77
2018-08-17T04:30:04.864Z,28.63
2018-08-17T04:32:32.990Z,28.80
2018-08-17T04:35:01.175Z,29.37
2018-08-17T04:37:29.346Z,26.93
2018-08-17T04:39:57.523Z,28.17
2018-08-17T04:42:25.712Z,28.10
2018-08-17T04:44:53.897Z,27.77
2018-08-17T04:47:22.097Z,25.83
2018-08-17T04:49:50.275Z,23.97
2018-08-17T04:52:18.450Z,23.37
2018-08-17T04:54:46.669Z,23.50
2018-08-17T04:57:14.834Z,21.83
2018-08-17T04:59:43.028Z,21.60
2018-08-17T05:02:11.238Z,23.33
2018-08-17T05:04:39.426Z,21.10
2018-08-17T05:07:08.225Z,19.27
2018-08-17T05:09:36.411Z,22.17
2018-08-17T05:12:04.591Z,19.73
2018-08-17T05:14:32.776Z,19.87
2018-08-17T05:17:00.953Z,20.00
2018-08-17T05:19:29.132Z,21.17
2018-08-17T05:21:57.329Z,23.73
2018-08-17T05:24:25.507Z,17.57
2018-08-17T05:26:53.694Z,18.67
2018-08-17T05:29:21.876Z,18.93
2018-08-17T05:31:50.091Z,17.40
2018-08-17T05:34:18.267Z,19.60
2018-08-17T05:36:46.454Z,17.57
2018-08-17T05:39:14.691Z,17.03
2018-08-17T05:41:42.870Z,18.33
2018-08-17T05:44:11.066Z,14.90
2018-08-17T05:46:39.231Z,18.10
2018-08-17T05:49:07.419Z,16.80
2018-08-17T05:51:35.607Z,15.53
2018-08-17T05:54:03.994Z,14.10
2018-08-17T05:56:32.195Z,14.87
2018-08-17T05:59:00.356Z,12.97
2018-08-17T06:01:28.550Z,12.93
2018-08-17T06:03:56.716Z,11.87
2018-08-17T06:06:24.904Z,10.30
2018-08-17T06:08:53.115Z,10.60
2018-08-17T06:11:21.484Z,9.03
2018-08-17T06:13:49.475Z,11.97
2018-08-17T06:16:17.667Z,10.73
2018-08-17T06:18:45.847Z,11.90
2018-08-17T06:21:14.036Z,11.63
2018-08-17T06:23:42.411Z,13.33
2018-08-17T06:26:10.596Z,12.87
2018-08-17T06:28:38.790Z,23.47
2018-08-17T06:31:07.030Z,22.80
2018-08-17T06:33:35.222Z,24.07
2018-08-17T06:36:03.482Z,26.07
2018-08-17T06:38:31.619Z,22.73
2018-08-17T06:40:59.807Z,23.70
2018-08-17T06:43:28.086Z,21.60
2018-08-17T06:45:56.270Z,23.17
2018-08-17T06:48:24.459Z,24.07
2018-08-17T06:50:52.759Z,23.00
2018-08-17T06:53:20.839Z,20.90
2018-08-17T06:55:49.017Z,21.67
2018-08-17T06:58:17.187Z,20.33
2018-08-17T07:00:45.390Z,21.30
2018-08-17T07:03:13.567Z,20.67
2018-08-17T07:05:41.742Z,21.63
2018-08-17T07:08:09.915Z,23.20
2018-08-17T07:10:38.094Z,21.77
2018-08-17T07:13:06.302Z,21.10
2018-08-17T07:15:34.491Z,21.73
2018-08-17T07:18:02.669Z,20.70
2018-08-17T07:20:30.841Z,20.53
2018-08-17T07:22:59.042Z,20.60
2018-08-17T07:25:27.223Z,20.90
2018-08-17T07:27:55.424Z,20.77
2018-08-17T07:30:23.582Z,20.13
2018-08-17T07:32:51.776Z,21.73
2018-08-17T07:35:19.962Z,19.80
2018-08-17T07:37:48.148Z,19.10
2018-08-17T07:40:16.331Z,19.07
2018-08-17T07:42:44.522Z,18.83
2018-08-17T07:45:12.697Z,18.67
2018-08-17T07:47:40.907Z,20.03
2018-08-17T07:50:11.379Z,16.93
2018-08-17T07:52:39.563Z,18.03
2018-08-17T07:55:07.763Z,17.77
2018-08-17T07:57:35.954Z,16.63
2018-08-17T08:00:04.730Z,17.13
2018-08-17T08:02:32.939Z,17.87
2018-08-17T08:05:01.105Z,17.67
2018-08-17T08:07:29.316Z,18.67
2018-08-17T08:09:57.510Z,17.80
2018-08-17T08:12:25.671Z,17.10
2018-08-17T08:14:53.841Z,17.13
2018-08-17T08:17:22.054Z,16.83
2018-08-17T08:20:01.530Z,17.90
2018-08-17T08:22:29.718Z,17.47
2018-08-17T08:24:57.906Z,15.23
2018-08-17T08:27:26.066Z,17.50
2018-08-17T08:29:54.244Z,16.50
2018-08-17T08:32:22.473Z,17.60
2018-08-17T08:34:50.614Z,16.50
2018-08-17T08:37:20.322Z,15.87
2018-08-17T08:39:48.503Z,15.37
2018-08-17T08:42:16.655Z,15.47
2018-08-17T08:44:44.834Z,15.33
2018-08-17T08:47:13.049Z,14.03
2018-08-17T08:49:41.214Z,14.50
2018-08-17T08:52:09.387Z,13.63
2018-08-17T08:54:37.563Z,13.43
2018-08-17T08:57:06.206Z,13.60
2018-08-17T08:59:34.379Z,12.50
2018-08-17T09:02:02.554Z,12.37
2018-08-17T09:04:30.745Z,12.57
2018-08-17T09:06:59.003Z,12.70
2018-08-17T09:09:27.161Z,9.40
2018-08-17T09:11:55.328Z,10.70
2018-08-17T09:14:23.494Z,9.73
2018-08-17T09:16:51.650Z,8.60
2018-08-17T09:19:19.820Z,8.50
2018-08-17T09:21:48.000Z,10.60
2018-08-17T09:24:16.181Z,10.57
2018-08-17T09:26:44.387Z,14.07
2018-08-17T09:29:12.632Z,12.50
2018-08-17T09:31:40.744Z,14.10
2018-08-17T09:34:08.938Z,13.03
2018-08-17T09:36:37.105Z,11.90
2018-08-17T09:39:07.264Z,14.10
2018-08-17T09:41:35.499Z,13.97
2018-08-17T09:44:03.675Z,14.13
2018-08-17T09:46:31.848Z,16.10
2018-08-17T09:49:00.535Z,16.97
2018-08-17T09:51:28.784Z,16.90
2018-08-17T09:53:56.909Z,17.97
2018-08-17T09:56:25.089Z,18.97
2018-08-17T09:58:53.262Z,19.07
2018-08-17T10:01:26.909Z,21.47
2018-08-17T10:04:00.514Z,20.03
2018-08-17T10:06:34.031Z,21.40
2018-08-17T10:09:07.611Z,24.77
2018-08-17T10:11:35.784Z,25.20
2018-08-17T10:14:03.958Z,26.13
2018-08-17T10:16:32.134Z,26.67
2018-08-17T10:19:00.311Z,26.30
2018-08-17T10:21:29.683Z,28.17
2018-08-17T10:23:57.543Z,27.53
2018-08-17T10:26:25.707Z,26.47
2018-08-17T10:28:53.904Z,24.50
2018-08-17T10:31:22.067Z,26.73
2018-08-17T10:33:50.249Z,26.67
2018-08-17T10:36:18.410Z,27.97
2018-08-17T10:38:46.578Z,28.60
2018-08-17T10:41:14.782Z,32.20
2018-08-17T10:43:42.974Z,33.30
2018-08-17T10:46:11.145Z,33.83
2018-08-17T10:48:39.336Z,32.83
2018-08-17T10:51:07.481Z,31.90
2018-08-17T10:53:41.686Z,38.63
2018-08-17T10:56:09.866Z,36.93
2018-08-17T10:58:38.030Z,45.23
2018-08-17T11:01:06.250Z,51.07
2018-08-17T11:03:34.430Z,54.53
2018-08-17T11:06:02.621Z,54.60
2018-08-17T11:08:30.790Z,54.40
2018-08-17T11:10:59.001Z,52.80
2018-08-17T11:13:27.173Z,54.27
2018-08-17T11:15:55.309Z,59.10
2018-08-17T11:18:23.546Z,60.63
2018-08-17T11:20:53.572Z,55.00
2018-08-17T11:23:22.109Z,55.73
2018-08-17T11:25:50.305Z,58.83
2018-08-17T11:28:18.495Z,62.67
2018-08-17T11:30:46.661Z,66.53
2018-08-17T11:33:14.850Z,63.80
2018-08-17T11:35:43.019Z,60.43
2018-08-17T11:38:15.519Z,59.50
2018-08-17T11:40:43.710Z,49.60
2018-08-17T11:43:11.896Z,58.73
2018-08-17T11:45:45.258Z,50.53
2018-08-17T11:48:25.786Z,42.23
2018-08-17T11:50:54.263Z,39.77
2018-08-17T11:53:22.467Z,36.40
2018-08-17T11:55:50.680Z,22.40
2018-08-17T11:58:18.855Z,26.70
2018-08-17T12:00:47.054Z,25.23
2018-08-17T12:03:15.282Z,25.07
2018-08-17T12:05:43.475Z,24.80
2018-08-17T12:08:11.745Z,24.60
2018-08-17T12:10:39.864Z,23.63
2018-08-17T12:13:13.366Z,25.47
2018-08-17T12:15:48.726Z,21.60
2018-08-17T12:18:16.993Z,21.87
2018-08-17T12:20:45.179Z,21.33
2018-08-17T12:23:13.391Z,20.63
2018-08-17T12:25:47.079Z,21.40
2018-08-17T12:28:15.286Z,21.90
2018-08-17T12:30:43.464Z,20.43
2018-08-17T12:33:12.627Z,19.47
2018-08-17T12:35:41.002Z,19.90
2018-08-17T12:38:14.306Z,18.27
2018-08-17T12:40:47.895Z,18.60
2018-08-17T12:43:18.327Z,21.77
2018-08-17T12:45:46.702Z,23.33
2018-08-17T12:48:15.907Z,26.03
2018-08-17T12:50:44.590Z,28.63
2018-08-17T12:53:13.082Z,31.53
2018-08-17T12:55:41.320Z,30.70
2018-08-17T12:58:09.630Z,28.20
2018-08-17T13:00:37.998Z,27.30
2018-08-17T13:03:06.214Z,28.40
2018-08-17T13:05:34.370Z,27.37
2018-08-17T13:08:02.558Z,28.63
2018-08-17T13:10:30.718Z,26.07
2018-08-17T13:13:04.174Z,26.50
2018-08-17T13:15:32.351Z,27.80
2018-08-17T13:18:08.450Z,26.93
2018-08-17T13:20:36.641Z,27.23
2018-08-17T13:23:04.871Z,28.23
2018-08-17T13:25:33.023Z,27.50
2018-08-17T13:28:01.210Z,28.13
2018-08-17T13:30:29.390Z,27.30
2018-08-17T13:32:57.572Z,27.67
2018-08-17T13:35:25.815Z,26.40
2018-08-17T13:37:54.022Z,27.10
2018-08-17T13:40:22.191Z,27.27
2018-08-17T13:42:50.378Z,27.63
2018-08-17T13:45:18.560Z,27.70
2018-08-17T13:47:46.738Z,27.93
2018-08-17T13:50:14.926Z,25.97
2018-08-17T13:52:43.122Z,23.00
2018-08-17T13:55:11.295Z,20.13
2018-08-17T13:57:39.512Z,18.97
2018-08-17T14:00:09.455Z,19.90
2018-08-17T14:02:37.681Z,17.73
2018-08-17T14:05:06.694Z,18.60
2018-08-17T14:07:34.867Z,18.47
2018-08-17T14:10:03.176Z,16.50
2018-08-17T14:12:31.318Z,13.10
2018-08-17T14:14:59.615Z,14.23
2018-08-17T14:17:27.814Z,14.10
2018-08-17T14:19:56.032Z,13.30
2018-08-17T14:22:24.328Z,14.33
2018-08-17T14:24:52.421Z,17.53
2018-08-17T14:27:20.606Z,16.47
2018-08-17T14:29:48.787Z,16.97
2018-08-17T14:32:16.971Z,15.80
2018-08-17T14:34:45.154Z,15.17
2018-08-17T14:37:13.322Z,14.87
2018-08-17T14:39:41.517Z,13.80
2018-08-17T14:42:09.719Z,14.47
2018-08-17T14:44:37.891Z,13.67
2018-08-17T14:47:06.118Z,13.70
2018-08-17T14:49:34.363Z,14.53
2018-08-17T14:52:02.815Z,16.17
2018-08-17T14:54:30.979Z,14.40
2018-08-17T14:56:59.164Z,14.10
2018-08-17T14:59:27.334Z,15.20
2018-08-17T15:01:55.502Z,14.53
2018-08-17T15:04:23.670Z,16.27
2018-08-17T15:06:51.859Z,16.27
2018-08-17T15:09:20.033Z,16.93
2018-08-17T15:11:48.212Z,16.50
2018-08-17T15:14:16.406Z,17.13
2018-08-17T15:16:44.615Z,17.60
2018-08-17T15:19:12.819Z,16.27
2018-08-17T15:21:41.443Z,16.73
2018-08-17T15:24:10.231Z,17.30
2018-08-17T15:26:38.471Z,17.17
2018-08-17T15:29:06.628Z,16.93
2018-08-17T15:31:35.243Z,14.37
2018-08-17T15:34:03.456Z,13.43
2018-08-17T15:36:31.666Z,11.90
2018-08-17T15:38:59.864Z,12.73
2018-08-17T15:41:28.158Z,12.20
2018-08-17T15:43:56.282Z,11.67
2018-08-17T15:46:24.512Z,11.20
2018-08-17T15:48:54.230Z,11.87
2018-08-17T15:51:22.421Z,11.13
2018-08-17T15:53:50.889Z,13.47
2018-08-17T15:56:19.150Z,12.60
2018-08-17T15:58:47.410Z,12.67
2018-08-17T16:01:15.612Z,11.47
2018-08-17T16:03:43.803Z,12.40
2018-08-17T16:06:12.011Z,13.03
2018-08-17T16:08:40.310Z,12.47
2018-08-17T16:11:09.020Z,12.00
2018-08-17T16:13:37.175Z,12.53
2018-08-17T16:16:05.675Z,12.80
2018-08-17T16:18:34.154Z,13.00
2018-08-17T16:21:02.347Z,12.30
2018-08-17T16:23:30.538Z,13.27
2018-08-17T16:25:58.736Z,17.00
2018-08-17T16:28:26.912Z,14.77
2018-08-17T16:30:55.103Z,15.03
2018-08-17T16:33:23.277Z,15.90
2018-08-17T16:35:51.455Z,14.53
2018-08-17T16:38:19.634Z,14.63
2018-08-17T16:40:50.526Z,14.37
2018-08-17T16:43:23.474Z,14.57
2018-08-17T16:45:51.718Z,14.67
2018-08-17T16:48:20.250Z,15.17
2018-08-17T16:50:48.458Z,15.03
2018-08-17T16:53:16.646Z,13.90
2018-08-17T16:55:44.810Z,14.47
2018-08-17T16:58:12.977Z,13.23
2018-08-17T17:00:41.234Z,12.80
2018-08-17T17:03:09.342Z,13.70
2018-08-17T17:05:37.506Z,13.30
2018-08-17T17:08:05.772Z,13.13
2018-08-17T17:10:33.974Z,12.90
2018-08-17T17:13:02.162Z,13.33
2018-08-17T17:15:30.328Z,14.40
2018-08-17T17:18:03.850Z,13.03
2018-08-17T17:20:34.555Z,12.23
2018-08-17T17:23:03.430Z,13.10
2018-08-17T17:25:31.609Z,14.63
2018-08-17T17:27:59.774Z,12.80
2018-08-17T17:30:43.136Z,15.07
2018-08-17T17:33:11.639Z,13.57
2018-08-17T17:35:41.862Z,14.57
2018-08-17T17:38:10.452Z,14.17
2018-08-17T17:40:38.935Z,14.47
2018-08-17T17:43:07.415Z,14.03
2018-08-17T17:45:36.064Z,14.13
2018-08-17T17:48:04.286Z,15.37
2018-08-17T17:50:32.493Z,14.70
2018-08-17T17:53:01.846Z,14.50
2018-08-17T17:55:41.089Z,14.10
2018-08-17T17:58:09.692Z,13.70
2018-08-17T18:00:37.860Z,13.53
2018-08-17T18:03:06.270Z,13.70
2018-08-17T18:05:34.438Z,13.33
2018-08-17T18:08:07.715Z,12.60
2018-08-17T18:10:35.894Z,12.30
2018-08-17T18:13:04.090Z,13.17
2018-08-17T18:15:32.238Z,12.80
2018-08-17T18:18:00.427Z,13.50
2018-08-17T18:20:28.595Z,15.00
2018-08-17T18:22:56.779Z,13.43
2018-08-17T18:25:24.969Z,13.67
2018-08-17T18:27:53.164Z,12.23
2018-08-17T18:30:21.322Z,13.73
2018-08-17T18:32:49.500Z,12.90
2018-08-17T18:35:17.797Z,13.87
2018-08-17T18:37:45.870Z,12.77
2018-08-17T18:40:14.080Z,13.23
2018-08-17T18:42:42.246Z,13.23
2018-08-17T18:45:10.442Z,13.90
2018-08-17T18:47:38.619Z,13.00
2018-08-17T18:50:07.430Z,13.30
2018-08-17T18:52:35.641Z,13.43
2018-08-17T18:55:04.087Z,13.03
2018-08-17T18:57:32.173Z,12.30
2018-08-17T19:00:00.471Z,13.80
2018-08-17T19:02:28.652Z,12.73
2018-08-17T19:04:56.834Z,12.40
2018-08-17T19:07:25.022Z,13.70
2018-08-17T19:09:53.220Z,13.73
2018-08-17T19:12:21.387Z,12.90
2018-08-17T19:14:50.739Z,13.53
2018-08-17T19:17:34.558Z,13.97
2018-08-17T19:20:02.769Z,14.50
2018-08-17T19:22:38.126Z,13.60
2018-08-17T19:25:07.396Z,13.63
2018-08-17T19:27:36.728Z,14.37
2018-08-17T19:30:08.872Z,14.50
2018-08-17T19:32:37.043Z,14.03
2018-08-17T19:35:05.234Z,15.10
2018-08-17T19:37:33.906Z,15.33
2018-08-17T19:40:02.149Z,15.20
2018-08-17T19:42:30.350Z,14.53
2018-08-17T19:44:58.549Z,14.30
2018-08-17T19:47:26.731Z,15.13
2018-08-17T19:49:54.909Z,15.37
2018-08-17T19:52:23.074Z,14.53
2018-08-17T19:54:51.243Z,15.20
2018-08-17T19:57:19.428Z,15.10
2018-08-17T19:59:47.606Z,14.67
2018-08-17T20:02:15.789Z,14.80
2018-08-17T20:04:43.962Z,14.70
2018-08-17T20:07:12.158Z,14.83
2018-08-17T20:09:40.329Z,15.70
2018-08-17T20:12:08.542Z,16.43
2018-08-17T20:14:36.718Z,15.37
2018-08-17T20:17:04.906Z,15.50
2018-08-17T20:19:38.446Z,16.27
2018-08-17T20:22:18.901Z,15.63
2018-08-17T20:24:47.346Z,16.33
2018-08-17T20:27:15.922Z,15.10
2018-08-17T20:29:44.308Z,16.57
2018-08-17T20:32:12.503Z,16.60
2018-08-17T20:34:43.822Z,15.97
2018-08-17T20:37:13.138Z,15.30
2018-08-17T20:39:42.646Z,16.20
2018-08-17T20:42:11.418Z,16.03
2018-08-17T20:44:39.632Z,16.90
2018-08-17T20:47:08.338Z,17.10
2018-08-17T20:49:36.554Z,16.53
2018-08-17T20:52:05.047Z,16.90
2018-08-17T20:54:33.527Z,16.33
2018-08-17T20:57:02.048Z,16.50
2018-08-17T20:59:30.380Z,16.13
2018-08-17T21:01:59.175Z,17.00
2018-08-17T21:04:27.359Z,16.30
2018-08-17T21:06:55.534Z,17.27
2018-08-17T21:09:23.718Z,16.13
2018-08-17T21:11:51.902Z,17.37
2018-08-17T21:14:20.103Z,16.20
2018-08-17T21:16:48.288Z,16.90
2018-08-17T21:19:16.527Z,17.77
2018-08-17T21:21:44.751Z,16.37
2018-08-17T21:24:12.899Z,15.90
2018-08-17T21:26:41.095Z,17.60
2018-08-17T21:29:09.343Z,17.90
2018-08-17T21:31:37.459Z,17.73
2018-08-17T21:34:05.681Z,16.77
2018-08-17T21:36:33.871Z,15.50
2018-08-17T21:39:17.956Z,15.10
2018-08-17T21:41:47.405Z,29.77
2018-08-17T21:44:16.870Z,16.60
2018-08-17T21:46:51.357Z,17.33
2018-08-17T21:49:20.083Z,17.13
2018-08-17T21:51:48.258Z,17.13
2018-08-17T21:54:18.090Z,18.60
2018-08-17T21:56:46.341Z,17.33
2018-08-17T21:59:14.514Z,17.17
2018-08-17T22:01:42.736Z,18.03
2018-08-17T22:04:10.933Z,18.20
2018-08-17T22:06:39.119Z,18.03
2018-08-17T22:09:08.644Z,17.60
2018-08-17T22:11:37.134Z,16.80
2018-08-17T22:14:05.774Z,17.27
2018-08-17T22:16:33.974Z,17.20
2018-08-17T22:19:02.224Z,17.93
2018-08-17T22:21:30.440Z,15.67
2018-08-17T22:23:58.836Z,17.53
2018-08-17T22:26:26.971Z,15.40
2018-08-17T22:28:55.271Z,15.50
2018-08-17T22:31:35.865Z,16.70
2018-08-17T22:34:04.211Z,16.27
2018-08-17T22:36:32.395Z,16.17
2018-08-17T22:39:00.594Z,15.37
2018-08-17T22:41:28.834Z,17.90
2018-08-17T22:43:57.656Z,16.23
2018-08-17T22:46:25.847Z,17.17
2018-08-17T22:48:54.323Z,16.87
2018-08-17T22:51:22.444Z,15.80
2018-08-17T22:53:50.634Z,17.50
2018-08-17T22:56:18.835Z,17.50
2018-08-17T22:58:49.956Z,18.23
2018-08-17T23:01:19.806Z,16.70
2018-08-17T23:03:54.690Z,16.43
2018-08-17T23:06:24.392Z,16.43
2018-08-17T23:08:52.602Z,15.63
2018-08-17T23:11:28.818Z,16.70
2018-08-17T23:13:59.279Z,16.47
2018-08-17T23:16:27.467Z,17.53
2018-08-17T23:18:55.657Z,16.50
2018-08-17T23:21:23.858Z,16.17
2018-08-17T23:23:52.068Z,16.70
2018-08-17T23:26:20.243Z,17.10
2018-08-17T23:28:48.415Z,16.63
2018-08-17T23:31:16.614Z,16.70
2018-08-17T23:33:44.786Z,17.10
2018-08-17T23:36:12.967Z,16.53
2018-08-17T23:38:41.162Z,17.60
2018-08-17T23:41:09.353Z,17.30
2018-08-17T23:43:37.539Z,16.37
2018-08-17T23:46:05.839Z,18.90
2018-08-17T23:48:34.018Z,18.93
2018-08-17T23:51:02.202Z,17.40
2018-08-17T23:53:30.435Z,18.30
2018-08-17T23:55:58.614Z,17.60
2018-08-17T23:58:26.811Z,18.07
